Latest Weather Observations for Miles

IDQ60801

Issued at 11:32 pm EST Thursday 17 August 2017 (issued every 30 minutes, with the page automatically refreshed every 10 minutes)

About weather observations | Map of weather stations | Latest weather observations for QLD | Other Formats
Station Details ID: 042112 Name: MILES CONSTANCE STREET Lat: -26.66 Lon: 150.18 Height: 304.8 m
Data from the previous 72 hours. | See also: Recent months at Miles
Date/Time
EST
Temp
°C
App
Temp
°C
Dew
Point
°C
Rel
Hum
%
Delta-T
°C
Wind Press
QNH
hPa
Press
MSL
hPa
Rain since
9am
mm
Dir  Spd
km/h
Gust
km/h
Spd
kts
Gust
kts
17/11:30pm 14.3 11.9 4.5 51 4.6 W 6 9 3 5 1016.6 - 0.0
17/11:00pm 14.1 12.0 6.8 61 3.6 W 7 9 4 5 1016.6 - 0.0
17/10:30pm 14.9 13.2 6.1 55 4.3 W 4 7 2 4 1016.4 - 0.0
17/10:00pm 15.3 13.2 6.6 56 4.3 W 7 9 4 5 1016.4 - 0.0
17/09:30pm 16.3 14.3 6.9 53 4.7 WSW 7 9 4 5 1016.1 - 0.0
17/09:00pm 17.0 15.3 7.4 53 4.9 WSW 6 7 3 4 1016.2 1016.1 0.0
17/08:30pm 17.9 15.9 7.3 50 5.4 WSW 7 9 4 5 1015.9 - 0.0
17/08:00pm 19.4 17.4 7.1 44 6.3 WSW 7 9 4 5 1015.4 - 0.0
17/07:30pm 21.3 19.1 6.3 37 7.7 WSW 7 9 4 5 1014.9 - 0.0
17/07:00pm 23.4 21.3 6.5 33 8.8 WSW 7 9 4 5 1014.4 - 0.0
17/06:30pm 25.0 22.1 4.8 27 10.3 WSW 9 15 5 8 1014.0 - 0.0
17/06:00pm 26.0 22.7 4.8 25 10.9 WSW 11 19 6 10 1013.4 1013.3 0.0
17/05:30pm 26.7 23.1 4.8 24 11.3 WSW 13 24 7 13 1013.0 - 0.0
17/05:00pm 27.6 23.1 4.2 22 12.0 WSW 17 26 9 14 1012.6 - 0.0
17/04:30pm 28.4 23.8 3.8 20 12.6 WSW 17 35 9 19 1012.2 - 0.0
17/04:00pm 29.2 24.5 3.4 19 13.2 WSW 17 30 9 16 1011.8 - 0.0
17/03:30pm 29.5 24.3 2.2 17 13.7 WSW 19 32 10 17 1011.7 - 0.0
17/03:00pm 29.9 24.7 2.7 17 13.8 W 19 32 10 17 1011.6 1011.4 0.0
17/02:30pm 31.0 26.6 2.9 16 14.4 WSW 15 26 8 14 1011.5 - 0.0
17/02:00pm 30.7 27.0 2.6 16 14.3 WNW 11 26 6 14 1011.6 - 0.0
17/01:30pm 30.0 25.1 2.2 17 14.0 W 17 32 9 17 1012.1 - 0.0
17/01:00pm 29.4 25.1 3.1 18 13.4 W 15 28 8 15 1012.5 - 0.0
17/12:30pm 29.0 24.3 2.9 18 13.2 WSW 17 26 9 14 1012.9 - 0.0
17/12:00pm 29.2 25.5 4.4 20 12.9 W 13 26 7 14 1013.3 1013.2 0.0
17/11:30am 27.8 24.2 4.9 23 11.9 W 13 22 7 12 1013.8 - 0.0
17/11:00am 27.0 23.7 4.7 24 11.5 W 11 17 6 9 1014.5 - 0.0
17/10:30am 27.4 25.8 8.6 30 10.4 W 7 11 4 6 1015.0 - 0.0
17/10:00am 25.9 23.8 8.3 32 9.6 N 9 15 5 8 1015.3 - 0.0
17/09:30am 24.4 22.1 9.1 37 8.4 NNW 11 17 6 9 1015.4 - 0.0
17/09:00am 22.4 21.0 10.8 47 6.5 NNW 9 15 5 8 1015.4 1015.2 0.0
17/08:30am 20.8 19.7 11.8 56 5.1 N 9 15 5 8 1015.3 - 0.0
17/08:00am 18.8 18.2 12.4 66 3.6 N 7 11 4 6 1015.2 - 0.0
17/07:30am 16.7 15.7 12.2 75 2.5 N 9 13 5 7 1015.0 - 0.0
17/07:00am 14.6 14.0 11.7 83 1.6 N 6 9 3 5 1014.7 - 0.0
17/06:30am 15.0 15.5 11.7 80 1.8 CALM 0 6 0 3 1014.5 - 0.0
17/06:00am 16.5 15.7 11.6 73 2.7 N 7 13 4 7 1014.0 1013.8 0.0
17/05:30am 17.2 15.4 11.0 67 3.4 N 11 19 6 10 1013.3 - 0.0
17/05:00am 17.2 15.7 10.6 65 3.6 N 9 17 5 9 1013.1 - 0.0
17/04:30am 17.3 15.8 10.5 64 3.7 N 9 13 5 7 1012.8 - 0.0
17/04:00am 17.5 15.7 9.6 60 4.2 N 9 11 5 6 1012.7 - 0.0
17/03:30am 18.2 17.0 9.6 57 4.6 NNW 6 9 3 5 1012.8 - 0.0
17/03:00am 19.1 17.2 8.9 51 5.4 NNW 9 15 5 8 1012.9 1012.7 0.0
17/02:30am 19.8 17.4 8.7 48 5.9 NNW 11 19 6 10 1012.9 - 0.0
17/02:00am 20.4 17.5 8.1 45 6.5 N 13 20 7 11 1012.9 - 0.0
17/01:30am 20.9 17.5 7.8 42 6.9 N 15 22 8 12 1012.8 - 0.0
17/01:00am 20.9 18.2 7.5 42 7.0 NNW 11 20 6 11 1013.0 - 0.0
17/12:30am 21.1 18.5 7.8 42 7.0 NNW 11 20 6 11 1013.2 - 0.0
17/12:00am 21.3 19.1 7.8 41 7.1 NNW 9 17 5 9 1013.3 1013.2 0.0
 
Date/Time
EST
Temp
°C
App
Temp
°C
Dew
Point
°C
Rel
Hum
%
Delta-T
°C
Wind Press
QNH
hPa
Press
MSL
hPa
Rain since
9am
mm
Dir  Spd
km/h
Gust
km/h
Spd
kts
Gust
kts
16/11:30pm 21.8 18.9 8.1 41 7.3 NNW 13 20 7 11 1013.4 - 0.0
16/11:00pm 21.8 19.3 8.1 41 7.3 N 11 22 6 12 1013.3 - 0.0
16/10:30pm 22.2 19.6 7.9 39 7.6 NNW 11 17 6 9 1013.5 - 0.0
16/10:00pm 23.0 20.0 7.5 37 8.2 NNW 13 24 7 13 1013.4 - 0.0
16/09:30pm 23.0 20.0 7.5 37 8.2 N 13 20 7 11 1013.3 - 0.0
16/09:00pm 23.2 20.6 7.6 36 8.3 N 11 17 6 9 1013.1 1013.0 0.0
16/08:30pm 23.4 21.0 7.1 35 8.6 N 9 19 5 10 1012.9 - 0.0
16/08:00pm 24.1 21.3 6.8 33 9.1 N 11 20 6 11 1012.7 - 0.0
16/07:30pm 24.7 21.8 6.4 31 9.6 N 11 19 6 10 1012.4 - 0.0
16/07:00pm 25.1 22.8 7.6 32 9.4 N 9 17 5 9 1011.9 - 0.0
16/06:30pm 26.1 23.3 7.0 29 10.2 N 11 17 6 9 1011.6 - 0.0
16/06:00pm 27.0 24.7 7.4 29 10.6 N 9 17 5 9 1011.3 1011.1 0.0
16/05:30pm 27.9 24.9 7.8 28 11.0 N 13 19 7 10 1010.9 - 0.0
16/05:00pm 29.3 25.9 4.0 20 13.1 NNW 11 20 6 11 1010.6 - 0.0
16/04:30pm 30.3 26.6 2.5 17 14.1 NW 11 19 6 10 1010.6 - 0.0
16/04:00pm 31.3 27.5 4.0 17 14.3 NW 13 24 7 13 1010.7 - 0.0
16/03:30pm 31.0 27.3 4.7 19 13.9 N 13 26 7 14 1010.6 - 0.0
16/03:00pm 31.2 27.5 4.4 18 14.1 NNW 13 28 7 15 1010.9 1010.7 0.0
16/02:30pm 31.2 27.6 4.8 19 14.0 NW 13 30 7 16 1011.0 - 0.0
16/02:00pm 31.2 27.7 3.7 17 14.3 WNW 11 28 6 15 1011.3 - 0.0
16/01:30pm 30.9 26.9 4.8 19 13.8 NNW 15 24 8 13 1011.6 - 0.0
16/01:00pm 30.8 27.7 7.4 23 12.9 NNW 13 22 7 12 1012.2 - 0.0
16/12:30pm 30.4 26.7 6.4 22 13.0 NNW 15 24 8 13 1012.8 - 0.0
16/12:00pm 29.3 25.0 6.8 24 12.2 N 19 32 10 17 1013.4 1013.3 0.0
16/11:30am 29.0 25.4 6.8 24 12.0 NW 15 30 8 16 1014.0 - 0.0
16/11:00am 28.1 24.4 7.8 27 11.1 N 17 28 9 15 1014.7 - 0.0
16/10:30am 27.2 23.3 7.1 28 10.8 NNW 17 32 9 17 1015.2 - 0.0
16/10:00am 26.3 23.0 8.1 31 9.9 NNW 15 26 8 14 1015.7 - 0.0
16/09:30am 24.2 20.4 7.7 34 8.8 N 17 32 9 17 1015.9 - 0.0
16/09:00am 23.1 19.7 7.6 37 8.2 N 15 26 8 14 1016.0 1015.9 0.0
16/08:30am 21.4 17.5 7.2 40 7.4 N 17 26 9 14 1015.8 - 0.0
16/08:00am 20.1 17.6 8.1 46 6.3 N 11 17 6 9 1016.0 - 0.0
16/07:30am 17.3 15.3 8.5 56 4.6 N 9 15 5 8 1015.7 - 0.0
16/07:00am 15.7 13.2 8.1 60 3.9 N 11 19 6 10 1015.5 - 0.0
16/06:30am 15.3 12.3 7.8 61 3.8 N 13 19 7 10 1015.3 - 0.0
16/06:00am 14.8 12.1 7.4 61 3.7 N 11 15 6 8 1015.1 1014.9 0.0
16/05:30am 14.1 11.2 6.3 59 3.8 N 11 13 6 7 1014.5 - 0.0
16/05:00am 13.7 11.0 5.6 58 3.9 N 9 13 5 7 1014.3 - 0.0
16/04:30am 13.6 10.7 4.9 55 4.1 N 9 13 5 7 1014.3 - 0.0
16/04:00am 13.5 10.9 4.0 52 4.4 N 7 11 4 6 1014.3 - 0.0
16/03:30am 13.6 10.9 3.6 51 4.6 N 7 9 4 5 1014.4 - 0.0
16/03:00am 14.5 11.2 2.3 43 5.5 N 9 11 5 6 1014.4 1014.2 0.0
16/02:30am 14.9 11.1 1.6 40 5.9 N 11 15 6 8 1014.4 - 0.0
16/02:00am 13.9 10.5 2.0 44 5.3 N 9 15 5 8 1014.7 - 0.0
16/01:30am 12.5 9.6 2.6 51 4.4 N 7 13 4 7 1014.9 - 0.0
16/01:00am 12.2 9.5 3.9 57 3.8 N 7 13 4 7 1014.9 - 0.0
16/12:30am 14.8 11.8 1.8 41 5.8 NNE 7 11 4 6 1015.1 - 0.0
16/12:00am 13.9 10.9 2.3 45 5.2 N 7 11 4 6 1015.0 1014.8 0.0
 
Date/Time
EST
Temp
°C
App
Temp
°C
Dew
Point
°C
Rel
Hum
%
Delta-T
°C
Wind Press
QNH
hPa
Press
MSL
hPa
Rain since
9am
mm
Dir  Spd
km/h
Gust
km/h
Spd
kts
Gust
kts
15/11:30pm 12.5 10.1 4.3 57 3.8 NNE 6 7 3 4 1015.1 - 0.0
15/11:00pm 12.6 9.9 3.6 54 4.1 NNE 7 11 4 6 1015.1 - 0.0
15/10:30pm 12.3 9.6 3.7 55 3.9 N 7 9 4 5 1015.1 - 0.0
15/10:00pm 13.0 10.4 4.1 54 4.1 NNE 7 11 4 6 1015.3 - 0.0
15/09:30pm 13.0 10.7 4.6 56 3.9 N 6 11 3 6 1015.5 - 0.0
15/09:00pm 13.9 12.8 5.0 55 4.2 CALM 0 0 0 0 1015.4 1015.2 0.0
15/08:30pm 14.8 13.4 3.8 47 5.1 CALM 0 0 0 0 1015.3 - 0.0
15/08:00pm 15.7 14.4 4.0 45 5.5 CALM 0 0 0 0 1015.2 - 0.0
15/07:30pm 17.2 15.9 4.2 42 6.2 CALM 0 0 0 0 1015.1 - 0.0
15/07:00pm 18.4 17.2 4.6 40 6.7 CALM 0 0 0 0 1014.9 - 0.0
15/06:30pm 20.6 19.4 4.6 35 7.9 CALM 0 0 0 0 1014.7 - 0.0
15/06:00pm 23.2 21.8 5.3 31 9.1 N 2 6 1 3 1014.5 1014.3 0.0
15/05:30pm 25.5 22.6 2.8 23 11.2 N 7 11 4 6 1014.5 - 0.0
15/05:00pm 27.0 24.9 1.6 19 12.4 NNW 2 11 1 6 1014.4 - 0.0
15/04:30pm 28.3 26.0 0.2 16 13.5 N 2 11 1 6 1014.4 - 0.0
15/04:00pm 29.6 26.9 0.4 15 14.2 NNW 4 11 2 6 1014.5 - 0.0
15/03:30pm 29.7 26.4 -0.2 14 14.4 NW 7 9 4 5 1014.6 - 0.0
15/03:00pm 29.7 25.8 -1.5 13 14.7 N 9 15 5 8 1014.6 1014.4 0.0
15/02:30pm 29.5 26.0 -1.2 13 14.5 NNW 7 9 4 5 1015.0 - 0.0
15/02:00pm 29.6 25.8 -0.9 14 14.5 N 9 13 5 7 1015.3 - 0.0
15/01:30pm 28.9 25.6 -0.1 15 13.9 N 7 15 4 8 1015.8 - 0.0
15/01:00pm 28.7 24.7 -1.9 13 14.2 N 9 13 5 7 1016.2 - 0.0
15/12:30pm 27.7 23.8 -1.8 14 13.6 NW 9 13 5 7 1017.0 - 0.0
15/12:00pm 28.1 24.7 -0.8 15 13.6 NW 7 15 4 8 1017.8 1017.6 0.0
15/11:30am 27.3 24.0 -1.1 15 13.2 NNW 6 11 3 6 1018.6 - 0.0
15/11:00am 26.4 23.2 -0.7 17 12.6 N 6 13 3 7 1019.1 - 0.0
15/10:30am 25.5 21.7 -0.7 18 12.1 N 9 15 5 8 1019.7 - 0.0
15/10:00am 23.8 20.0 -0.8 19 11.2 N 9 13 5 7 1020.0 - 0.0
15/09:30am 21.4 18.0 -0.4 23 9.8 N 7 13 4 7 1020.3 - 0.0
15/09:00am 18.7 15.2 -1.2 26 8.6 N 7 11 4 6 1020.5 1020.4 0.0
15/08:30am 15.5 12.1 -0.5 33 6.8 N 7 11 4 6 1020.5 - 0.0
15/08:00am 11.4 8.2 -0.6 43 4.9 N 6 9 3 5 1020.4 - 0.0
15/07:30am 8.1 4.7 -0.5 54 3.4 N 7 9 4 5 1020.6 - 0.0
15/07:00am 5.0 1.9 0.1 70 1.9 N 6 7 3 4 1020.5 - 0.0
15/06:30am 4.4 1.0 -0.3 71 1.8 N 7 7 4 4 1020.0 - 0.0
15/06:00am 4.3 2.5 1.0 79 1.3 CALM 0 0 0 0 1020.0 1019.9 0.0
15/05:30am 4.3 1.3 0.7 77 1.4 N 6 7 3 4 1019.6 - 0.0
15/05:00am 4.5 1.4 0.1 73 1.7 N 6 7 3 4 1019.1 - 0.0
15/04:30am 4.9 1.8 0.0 70 1.9 N 6 6 3 3 1019.0 - 0.0
15/04:00am 4.6 1.5 -0.1 71 1.8 N 6 6 3 3 1019.0 - 0.0
15/03:30am 4.9 3.0 0.6 74 1.7 CALM 0 0 0 0 1019.1 - 0.0
15/03:00am 5.2 3.3 0.3 70 1.9 CALM 0 0 0 0 1019.3 1019.2 0.0
15/02:30am 5.3 2.5 -0.4 66 2.2 N 4 6 2 3 1019.1 - 0.0
15/02:00am 5.6 3.6 0.2 68 2.1 CALM 0 0 0 0 1018.9 - 0.0
15/01:30am 6.0 4.0 -0.2 64 2.4 CALM 0 0 0 0 1019.0 - 0.0
15/01:00am 6.5 4.5 -0.4 61 2.7 CALM 0 0 0 0 1019.3 - 0.0
15/12:30am 6.8 4.8 -0.4 60 2.8 CALM 0 0 0 0 1019.6 - 0.0
15/12:00am 7.4 5.3 -0.8 56 3.2 CALM 0 0 0 0 1019.7 1019.6 0.0

Other Formats:

Comma delimited format used in spreadsheet applications
http://www.bom.gov.au/fwo/IDQ60801/IDQ60801.95529.axf

JavaScript Object Notation format (JSON) in row-major order
http://www.bom.gov.au/fwo/IDQ60801/IDQ60801.95529.json